Time;durP1;ratioP1;P1;durP2;ratioP2;P2;SDS_P1;SDS_P2;PMS_P1;PMS_P2;Temp;Humidity;BMP_temperature;BMP_pressure;BME280_temperature;BME280_humidity;BME280_pressure;Samples;Min_cycle;Max_cycle;Signal;HPM_P1;HPM_P2
2021/11/19 00:02:00;;;;;;;0.40;0.40;;;;;;;;;;5008637;28;20104;-70
2021/11/19 00:04:27;;;;;;;0.70;0.70;;;;;;;;;;5013848;28;20488;-71
2021/11/19 00:06:53;;;;;;;3.63;1.40;;;;;;;;;;5007725;28;20101;-72
2021/11/19 00:09:19;;;;;;;7.40;2.72;;;;;;;;;;5016162;28;20029;-71
2021/11/19 00:11:47;;;;;;;1.35;0.98;;;;;;;;;;5019873;28;20026;-71
2021/11/19 00:14:13;;;;;;;0.50;0.50;;;;;;;;;;5020378;28;20030;-71
2021/11/19 00:16:41;;;;;;;0.10;0.10;;;;;;;;;;5012871;28;20033;-71
2021/11/19 00:19:07;;;;;;;0.25;0.25;;;;;;;;;;5014703;28;20088;-71
2021/11/19 00:21:34;;;;;;;0.80;0.73;;;;;;;;;;5016727;28;20038;-71
2021/11/19 00:24:01;;;;;;;4.78;1.70;;;;;;;;;;5012778;28;20068;-71
2021/11/19 00:26:27;;;;;;;0.47;0.47;;;;;;;;;;5011697;28;20112;-72
2021/11/19 00:28:54;;;;;;;0.60;0.60;;;;;;;;;;5015176;28;20030;-71
2021/11/19 00:31:23;;;;;;;0.55;0.55;;;;;;;;;;5011955;28;20048;-71
2021/11/19 00:33:49;;;;;;;4.15;1.05;;;;;;;;;;5014799;28;20037;-71
2021/11/19 00:36:16;;;;;;;0.82;0.82;;;;;;;;;;5011917;28;20034;-71
2021/11/19 00:38:42;;;;;;;0.70;0.70;;;;;;;;;;5012362;28;20048;-71
2021/11/19 00:41:09;;;;;;;0.75;0.60;;;;;;;;;;5013609;28;20026;-71
2021/11/19 00:43:35;;;;;;;0.60;0.60;;;;;;;;;;5014043;28;20062;-71
2021/11/19 00:46:01;;;;;;;1.30;1.20;;;;;;;;;;5011796;28;20029;-71
2021/11/19 00:48:30;;;;;;;2.92;1.33;;;;;;;;;;5013427;28;20032;-71
2021/11/19 00:50:58;;;;;;;2.65;1.88;;;;;;;;;;5014160;28;20025;-71
2021/11/19 00:53:24;;;;;;;2.00;0.85;;;;;;;;;;5023182;28;20029;-71
2021/11/19 00:55:50;;;;;;;2.75;1.58;;;;;;;;;;5012599;28;20108;-71
2021/11/19 00:58:17;;;;;;;0.68;0.68;;;;;;;;;;5013703;28;20060;-71
2021/11/19 01:00:45;;;;;;;1.35;1.25;;;;;;;;;;5011324;28;20053;-71
2021/11/19 01:03:11;;;;;;;0.40;0.40;;;;;;;;;;5011253;28;20232;-71
2021/11/19 01:05:37;;;;;;;1.58;0.70;;;;;;;;;;5011434;28;20084;-71
2021/11/19 01:08:03;;;;;;;0.93;0.75;;;;;;;;;;5011024;28;20030;-71
2021/11/19 01:10:31;;;;;;;1.00;1.00;;;;;;;;;;5013195;28;20037;-71
2021/11/19 01:12:57;;;;;;;1.27;0.88;;;;;;;;;;5011925;28;20469;-71
2021/11/19 01:15:28;;;;;;;1.13;1.02;;;;;;;;;;5020466;28;20124;-71
2021/11/19 01:17:54;;;;;;;;;;;;;;;;;;5012966;28;20125;-71
2021/11/19 01:20:24;;;;;;;0.38;0.38;;;;;;;;;;5010032;28;20330;-71
2021/11/19 01:22:52;;;;;;;1.25;1.15;;;;;;;;;;5011220;28;20022;-71
2021/11/19 01:25:19;;;;;;;0.30;0.30;;;;;;;;;;5019948;28;20025;-71
2021/11/19 01:27:45;;;;;;;0.30;0.30;;;;;;;;;;5019454;28;20623;-71
2021/11/19 01:30:13;;;;;;;0.43;0.43;;;;;;;;;;5011659;28;20481;-71
2021/11/19 01:32:39;;;;;;;1.88;1.33;;;;;;;;;;5010084;28;20121;-71
2021/11/19 01:35:05;;;;;;;0.90;0.90;;;;;;;;;;5022798;28;20116;-71
2021/11/19 01:37:32;;;;;;;0.20;0.20;;;;;;;;;;5011246;28;20026;-71
2021/11/19 01:39:57;;;;;;;1.15;0.65;;;;;;;;;;5011870;28;20029;-71
2021/11/19 01:42:28;;;;;;;1.95;1.35;;;;;;;;;;5011827;28;20026;-71
2021/11/19 01:45:00;;;;;;;5.85;0.75;;;;;;;;;;5011069;28;20551;-71
2021/11/19 01:47:28;;;;;;;2.20;2.10;;;;;;;;;;5010886;28;20091;-72
2021/11/19 01:49:54;;;;;;;1.02;1.02;;;;;;;;;;5011651;28;20034;-71
2021/11/19 01:52:27;;;;;;;1.27;0.93;;;;;;;;;;5011313;28;20034;-71
2021/11/19 01:54:56;;;;;;;1.05;1.02;;;;;;;;;;5008477;28;20147;-71
2021/11/19 01:57:26;;;;;;;0.10;0.10;;;;;;;;;;5010720;28;20026;-71
2021/11/19 01:59:55;;;;;;;0.10;0.10;;;;;;;;;;5009922;28;20401;-71
2021/11/19 02:02:26;;;;;;;2.67;1.35;;;;;;;;;;5010404;28;20033;-71
2021/11/19 02:04:56;;;;;;;0.90;0.90;;;;;;;;;;5011126;28;20041;-71
2021/11/19 02:07:23;;;;;;;0.45;0.45;;;;;;;;;;5011075;28;20030;-71
2021/11/19 02:10:01;;;;;;;0.52;0.40;;;;;;;;;;5014849;28;20056;-71
2021/11/19 02:12:35;;;;;;;0.22;0.22;;;;;;;;;;5010953;28;20397;-71
2021/11/19 02:15:18;;;;;;;0.30;0.30;;;;;;;;;;5013186;28;20022;-71
2021/11/19 02:17:51;;;;;;;1.10;0.95;;;;;;;;;;5010049;28;20033;-72
2021/11/19 02:20:19;;;;;;;1.33;1.23;;;;;;;;;;5010561;28;20033;-71
2021/11/19 02:22:50;;;;;;;0.70;0.70;;;;;;;;;;5009551;28;20033;-72
2021/11/19 02:25:19;;;;;;;1.23;1.13;;;;;;;;;;5014294;28;20032;-72
2021/11/19 02:27:48;;;;;;;0.60;0.47;;;;;;;;;;5013299;28;20037;-72
2021/11/19 02:30:16;;;;;;;7.13;1.92;;;;;;;;;;5013503;28;20393;-72
2021/11/19 02:32:47;;;;;;;0.57;0.57;;;;;;;;;;5006348;28;20038;-71
2021/11/19 02:35:17;;;;;;;0.40;0.40;;;;;;;;;;5012185;28;20601;-72
2021/11/19 02:37:46;;;;;;;0.73;0.47;;;;;;;;;;5006417;28;20123;-72
2021/11/19 02:40:15;;;;;;;0.20;0.20;;;;;;;;;;5011513;28;20026;-71
2021/11/19 02:42:43;;;;;;;2.35;1.85;;;;;;;;;;5011937;28;20022;-72
2021/11/19 02:45:11;;;;;;;1.00;0.90;;;;;;;;;;5008563;28;20053;-71
2021/11/19 02:47:38;;;;;;;1.98;1.88;;;;;;;;;;5009660;28;20022;-72
2021/11/19 02:50:05;;;;;;;1.08;0.90;;;;;;;;;;5009108;28;20406;-71
2021/11/19 02:52:32;;;;;;;0.32;0.32;;;;;;;;;;5010885;28;20137;-71
2021/11/19 02:54:59;;;;;;;0.85;0.85;;;;;;;;;;5009224;28;20033;-71
2021/11/19 02:57:25;;;;;;;1.45;1.38;;;;;;;;;;5007658;28;20026;-71
2021/11/19 02:59:52;;;;;;;0.85;0.85;;;;;;;;;;5009204;28;20046;-71
2021/11/19 03:02:21;;;;;;;6.18;1.67;;;;;;;;;;5008940;28;20385;-72
2021/11/19 03:04:49;;;;;;;1.80;0.60;;;;;;;;;;5011743;28;20214;-71
2021/11/19 03:07:15;;;;;;;0.63;0.63;;;;;;;;;;5008752;28;20120;-71
2021/11/19 03:09:43;;;;;;;0.90;0.73;;;;;;;;;;5011056;28;20065;-72
2021/11/19 03:12:10;;;;;;;0.30;0.30;;;;;;;;;;5010397;28;20033;-71
2021/11/19 03:14:36;;;;;;;0.25;0.25;;;;;;;;;;5011841;28;20126;-71
2021/11/19 03:17:03;;;;;;;0.85;0.40;;;;;;;;;;5008991;28;20408;-71
2021/11/19 03:19:30;;;;;;;1.45;0.80;;;;;;;;;;5009090;28;20543;-71
2021/11/19 03:21:55;;;;;;;0.68;0.68;;;;;;;;;;5009916;28;20025;-71
2021/11/19 03:24:23;;;;;;;0.20;0.20;;;;;;;;;;5009382;28;20042;-71
2021/11/19 03:26:49;;;;;;;2.20;1.50;;;;;;;;;;5009347;28;20022;-71
2021/11/19 03:29:15;;;;;;;1.25;0.85;;;;;;;;;;5009081;28;20018;-72
2021/11/19 03:31:42;;;;;;;0.73;0.73;;;;;;;;;;5010653;28;20065;-71
2021/11/19 03:34:10;;;;;;;0.47;0.47;;;;;;;;;;5008380;28;20168;-72
2021/11/19 03:36:36;;;;;;;0.25;0.25;;;;;;;;;;5007777;28;20026;-71
2021/11/19 03:39:03;;;;;;;0.65;0.65;;;;;;;;;;5008132;28;20121;-72
2021/11/19 03:41:31;;;;;;;1.20;0.93;;;;;;;;;;5008431;28;20022;-71
2021/11/19 03:44:03;;;;;;;0.60;0.60;;;;;;;;;;5013079;28;20022;-72
2021/11/19 03:46:31;;;;;;;0.88;0.88;;;;;;;;;;5016031;28;20484;-71
2021/11/19 03:48:57;;;;;;;0.52;0.47;;;;;;;;;;5014139;28;20036;-71
2021/11/19 03:51:26;;;;;;;3.20;1.58;;;;;;;;;;5015586;28;20037;-71
2021/11/19 03:53:52;;;;;;;2.85;0.65;;;;;;;;;;5015638;28;20040;-71
2021/11/19 03:56:18;;;;;;;0.50;0.50;;;;;;;;;;5015527;28;20388;-72
2021/11/19 03:58:44;;;;;;;1.38;0.77;;;;;;;;;;5015986;28;20030;-72
2021/11/19 04:01:18;;;;;;;0.65;0.65;;;;;;;;;;5014398;28;20032;-71
2021/11/19 04:03:45;;;;;;;0.30;0.30;;;;;;;;;;5012581;28;20036;-72
2021/11/19 04:06:11;;;;;;;0.20;0.20;;;;;;;;;;5014740;28;20481;-71
2021/11/19 04:08:37;;;;;;;0.25;0.25;;;;;;;;;;5016103;28;20117;-71
2021/11/19 04:11:04;;;;;;;1.55;1.45;;;;;;;;;;5014980;28;20072;-71
2021/11/19 04:13:30;;;;;;;0.68;0.68;;;;;;;;;;5016018;28;20029;-72
2021/11/19 04:15:58;;;;;;;0.60;0.60;;;;;;;;;;5018669;28;20026;-71
2021/11/19 04:18:25;;;;;;;0.55;0.55;;;;;;;;;;5015802;28;20100;-72
2021/11/19 04:20:51;;;;;;;1.27;1.15;;;;;;;;;;5016110;28;20033;-71
2021/11/19 04:23:17;;;;;;;1.08;0.73;;;;;;;;;;5015680;28;20458;-71
2021/11/19 04:25:44;;;;;;;0.30;0.30;;;;;;;;;;5015312;28;20065;-71
2021/11/19 04:28:10;;;;;;;1.85;1.23;;;;;;;;;;5015992;28;20042;-71
2021/11/19 04:30:40;;;;;;;0.38;0.38;;;;;;;;;;5015872;28;20062;-71
2021/11/19 04:33:06;;;;;;;0.90;0.90;;;;;;;;;;5016112;28;20022;-71
2021/11/19 04:35:32;;;;;;;0.85;0.80;;;;;;;;;;5017670;28;20029;-71
2021/11/19 04:37:58;;;;;;;0.98;0.95;;;;;;;;;;5018042;28;20505;-71
2021/11/19 04:40:25;;;;;;;1.35;0.63;;;;;;;;;;5016695;28;20052;-71
2021/11/19 04:42:51;;;;;;;0.93;0.90;;;;;;;;;;5023318;28;20037;-71
2021/11/19 04:45:20;;;;;;;0.77;0.57;;;;;;;;;;5014264;28;20057;-71
2021/11/19 04:47:48;;;;;;;1.80;1.63;;;;;;;;;;5015089;28;20058;-72
2021/11/19 04:50:14;;;;;;;2.25;1.13;;;;;;;;;;5016043;28;20060;-72
2021/11/19 04:52:40;;;;;;;0.98;0.88;;;;;;;;;;5014978;28;20061;-71
2021/11/19 04:55:07;;;;;;;1.00;1.00;;;;;;;;;;5013902;28;20026;-71
2021/11/19 04:57:33;;;;;;;0.43;0.43;;;;;;;;;;5010599;28;20053;-71
2021/11/19 05:00:00;;;;;;;1.45;0.47;;;;;;;;;;5015506;28;20053;-72
2021/11/19 05:02:27;;;;;;;0.20;0.20;;;;;;;;;;5011128;28;20084;-72
2021/11/19 05:04:53;;;;;;;0.32;0.32;;;;;;;;;;5011634;28;20109;-71
2021/11/19 05:07:20;;;;;;;0.30;0.30;;;;;;;;;;5009783;28;20048;-71
2021/11/19 05:09:46;;;;;;;1.40;1.17;;;;;;;;;;5011193;28;20076;-71
2021/11/19 05:12:14;;;;;;;1.08;0.98;;;;;;;;;;5012556;28;20025;-71
2021/11/19 05:14:40;;;;;;;1.55;1.45;;;;;;;;;;5012034;28;20684;-71
2021/11/19 05:17:08;;;;;;;2.40;1.17;;;;;;;;;;5011814;28;20484;-72
2021/11/19 05:19:34;;;;;;;0.85;0.85;;;;;;;;;;5011486;28;20037;-71
2021/11/19 05:22:00;;;;;;;1.05;0.95;;;;;;;;;;5010792;28;20026;-71
2021/11/19 05:24:26;;;;;;;1.88;1.70;;;;;;;;;;5012091;28;20040;-71
2021/11/19 05:26:52;;;;;;;2.35;1.30;;;;;;;;;;5014564;28;20120;-70
2021/11/19 05:29:19;;;;;;;1.65;1.33;;;;;;;;;;5012282;28;20034;-70
2021/11/19 05:31:45;;;;;;;1.10;0.98;;;;;;;;;;5011649;28;20561;-72
2021/11/19 05:34:11;;;;;;;4.32;1.15;;;;;;;;;;5011935;28;20166;-71
2021/11/19 05:36:37;;;;;;;0.45;0.45;;;;;;;;;;5012028;28;20053;-72
2021/11/19 05:39:04;;;;;;;1.98;1.48;;;;;;;;;;5010104;28;20076;-72
2021/11/19 05:41:30;;;;;;;6.15;0.98;;;;;;;;;;5011073;28;20065;-73
2021/11/19 05:43:56;;;;;;;0.57;0.57;;;;;;;;;;5012377;28;20030;-72
2021/11/19 05:46:25;;;;;;;2.92;0.93;;;;;;;;;;5010913;28;20040;-71
2021/11/19 05:48:52;;;;;;;1.85;0.52;;;;;;;;;;5011964;28;20034;-70
2021/11/19 05:51:19;;;;;;;0.65;0.65;;;;;;;;;;5010037;28;20029;-70
2021/11/19 05:53:45;;;;;;;2.47;1.67;;;;;;;;;;5010317;28;20137;-70
2021/11/19 05:56:12;;;;;;;0.55;0.55;;;;;;;;;;5007291;28;20080;-71
2021/11/19 05:58:38;;;;;;;1.05;1.05;;;;;;;;;;5008919;28;20157;-73
2021/11/19 06:01:06;;;;;;;1.17;0.88;;;;;;;;;;5009935;28;20053;-73
2021/11/19 06:03:34;;;;;;;0.25;0.25;;;;;;;;;;5009857;28;20029;-73
2021/11/19 06:06:00;;;;;;;1.75;1.25;;;;;;;;;;5008343;28;20021;-74
2021/11/19 06:08:26;;;;;;;0.82;0.82;;;;;;;;;;5008564;28;20030;-73
2021/11/19 06:10:54;;;;;;;2.20;1.13;;;;;;;;;;5008813;28;20033;-73
2021/11/19 06:13:23;;;;;;;0.63;0.57;;;;;;;;;;5010829;28;20540;-72
2021/11/19 06:15:54;;;;;;;0.63;0.63;;;;;;;;;;5010684;28;20057;-74
2021/11/19 06:18:22;;;;;;;1.17;1.17;;;;;;;;;;5008367;28;20033;-73
2021/11/19 06:20:50;;;;;;;1.35;0.43;;;;;;;;;;5010324;28;20030;-73
2021/11/19 06:23:18;;;;;;;1.05;0.98;;;;;;;;;;5009997;28;20026;-74
2021/11/19 06:25:45;;;;;;;0.10;0.10;;;;;;;;;;5009933;28;20030;-73
2021/11/19 06:28:13;;;;;;;0.10;0.10;;;;;;;;;;5010500;28;20095;-73
2021/11/19 06:30:39;;;;;;;0.32;0.32;;;;;;;;;;5010479;28;20033;-73
2021/11/19 06:33:05;;;;;;;0.98;0.55;;;;;;;;;;5010477;28;20095;-73
2021/11/19 06:35:31;;;;;;;0.50;0.50;;;;;;;;;;5009783;28;20505;-73
2021/11/19 06:37:58;;;;;;;0.10;0.10;;;;;;;;;;5009232;28;20030;-74
2021/11/19 06:40:27;;;;;;;0.57;0.57;;;;;;;;;;5009542;28;20041;-74
2021/11/19 06:42:57;;;;;;;0.20;0.20;;;;;;;;;;5009313;28;20061;-73
2021/11/19 06:45:23;;;;;;;0.80;0.80;;;;;;;;;;5005423;28;20030;-73
2021/11/19 06:47:49;;;;;;;0.98;0.98;;;;;;;;;;5007928;28;20037;-72
2021/11/19 06:50:39;;;;;;;0.73;0.73;;;;;;;;;;5008831;28;20037;-73
2021/11/19 06:53:05;;;;;;;0.43;0.43;;;;;;;;;;5007468;28;20552;-74
2021/11/19 06:55:31;;;;;;;0.20;0.20;;;;;;;;;;5009254;28;20030;-73
2021/11/19 06:57:57;;;;;;;0.70;0.70;;;;;;;;;;5004608;28;20038;-73
2021/11/19 07:00:25;;;;;;;1.25;0.63;;;;;;;;;;5008909;28;20046;-74
2021/11/19 07:02:51;;;;;;;0.40;0.40;;;;;;;;;;5009704;28;20022;-73
2021/11/19 07:05:18;;;;;;;0.10;0.10;;;;;;;;;;5009453;28;20030;-73
2021/11/19 07:07:44;;;;;;;0.70;0.55;;;;;;;;;;5006956;28;20033;-73
2021/11/19 07:10:10;;;;;;;0.68;0.68;;;;;;;;;;5008983;28;20036;-73
2021/11/19 07:12:37;;;;;;;0.60;0.60;;;;;;;;;;5010984;28;20029;-73
2021/11/19 07:15:08;;;;;;;0.30;0.30;;;;;;;;;;5008550;28;20041;-73
2021/11/19 07:17:33;;;;;;;0.17;0.17;;;;;;;;;;5008042;28;20041;-73
2021/11/19 07:20:00;;;;;;;1.38;1.27;;;;;;;;;;5005156;28;20057;-73
2021/11/19 07:22:26;;;;;;;3.30;1.27;;;;;;;;;;5009641;28;20033;-73
2021/11/19 07:24:52;;;;;;;1.65;1.38;;;;;;;;;;5009044;28;20079;-74
2021/11/19 07:27:19;;;;;;;0.52;0.52;;;;;;;;;;5009076;28;20038;-73
2021/11/19 07:29:45;;;;;;;3.60;1.85;;;;;;;;;;5007578;28;20515;-73
2021/11/19 07:32:11;;;;;;;0.47;0.40;;;;;;;;;;5008658;28;20034;-73
2021/11/19 07:34:37;;;;;;;0.57;0.57;;;;;;;;;;5009126;28;20385;-75
2021/11/19 07:37:03;;;;;;;0.50;0.50;;;;;;;;;;5008551;28;20060;-73
2021/11/19 07:39:29;;;;;;;0.52;0.52;;;;;;;;;;5007982;28;20032;-73
2021/11/19 07:41:55;;;;;;;1.23;1.10;;;;;;;;;;5008211;28;20160;-74
2021/11/19 07:44:20;;;;;;;0.63;0.63;;;;;;;;;;5007784;28;20484;-74
2021/11/19 07:46:47;;;;;;;0.08;0.08;;;;;;;;;;5008833;28;20026;-75
2021/11/19 07:49:13;;;;;;;0.30;0.30;;;;;;;;;;5001171;28;20033;-74
2021/11/19 07:51:40;;;;;;;1.38;0.57;;;;;;;;;;5009212;28;20038;-74
2021/11/19 07:54:07;;;;;;;0.22;0.22;;;;;;;;;;5008065;28;20044;-74
2021/11/19 07:56:33;;;;;;;0.28;0.28;;;;;;;;;;5008547;28;20040;-74
2021/11/19 07:59:01;;;;;;;0.35;0.35;;;;;;;;;;5008490;28;20064;-73
2021/11/19 08:01:27;;;;;;;1.17;0.88;;;;;;;;;;5008780;28;20145;-74
2021/11/19 08:03:53;;;;;;;0.30;0.30;;;;;;;;;;5008046;28;20076;-74
2021/11/19 08:06:21;;;;;;;0.63;0.63;;;;;;;;;;5008748;28;20031;-75
2021/11/19 08:08:49;;;;;;;0.10;0.10;;;;;;;;;;5008087;28;20026;-74
2021/11/19 08:11:15;;;;;;;0.60;0.60;;;;;;;;;;5008694;28;20500;-75
2021/11/19 08:13:41;;;;;;;13.68;0.93;;;;;;;;;;5008305;28;20137;-74
2021/11/19 08:16:07;;;;;;;0.57;0.57;;;;;;;;;;5007987;28;20108;-73
2021/11/19 08:18:35;;;;;;;2.38;1.08;;;;;;;;;;5008131;28;20026;-73
2021/11/19 08:21:02;;;;;;;0.20;0.20;;;;;;;;;;5008896;28;20022;-72
2021/11/19 08:23:36;;;;;;;0.15;0.13;;;;;;;;;;5004734;28;20110;-73
2021/11/19 08:26:07;;;;;;;0.17;0.17;;;;;;;;;;5014526;28;20028;-74
2021/11/19 08:28:34;;;;;;;0.05;0.05;;;;;;;;;;5008081;28;20101;-73
2021/11/19 08:31:01;;;;;;;0.17;0.17;;;;;;;;;;5011442;28;20029;-73
2021/11/19 08:33:27;;;;;;;0.57;0.57;;;;;;;;;;5012189;28;20098;-73
2021/11/19 08:35:53;;;;;;;0.28;0.28;;;;;;;;;;5011715;28;20037;-73
2021/11/19 08:38:20;;;;;;;0.88;0.73;;;;;;;;;;5011467;28;20757;-70
2021/11/19 08:40:46;;;;;;;1.52;0.70;;;;;;;;;;5004683;28;20113;-74
2021/11/19 08:43:18;;;;;;;0.15;0.15;;;;;;;;;;5009924;28;20018;-70
2021/11/19 08:45:43;;;;;;;;;;;;;;;;;;5012591;28;20064;-70
2021/11/19 08:48:10;;;;;;;0.40;0.40;;;;;;;;;;5011523;28;19948;-70
2021/11/19 08:50:39;;;;;;;1.17;0.43;;;;;;;;;;5011412;28;20144;-71
2021/11/19 08:53:06;;;;;;;3.97;0.75;;;;;;;;;;5012148;28;20620;-70
2021/11/19 08:55:32;;;;;;;0.80;0.75;;;;;;;;;;5011541;28;20021;-70
2021/11/19 08:57:59;;;;;;;0.28;0.28;;;;;;;;;;5011997;28;20041;-70
2021/11/19 09:00:26;;;;;;;2.47;1.40;;;;;;;;;;5011574;28;20083;-73
2021/11/19 09:02:53;;;;;;;0.10;0.10;;;;;;;;;;5012316;28;20034;-71
2021/11/19 09:05:19;;;;;;;0.82;0.82;;;;;;;;;;5010875;28;20405;-70
2021/11/19 09:07:45;;;;;;;0.95;0.70;;;;;;;;;;5010926;28;20025;-70
2021/11/19 09:10:13;;;;;;;0.75;0.57;;;;;;;;;;5009971;28;20030;-69
2021/11/19 09:12:39;;;;;;;0.70;0.70;;;;;;;;;;5011414;28;20088;-70
2021/11/19 09:15:06;;;;;;;0.57;0.57;;;;;;;;;;5011145;28;20034;-70
2021/11/19 09:17:51;;;;;;;0.35;0.35;;;;;;;;;;5011067;28;20485;-69
2021/11/19 09:20:31;;;;;;;0.68;0.68;;;;;;;;;;5010830;28;20018;-70
2021/11/19 09:23:09;;;;;;;0.65;0.52;;;;;;;;;;5011464;28;20083;-70
2021/11/19 09:25:36;;;;;;;0.93;0.75;;;;;;;;;;5011129;28;20520;-69
2021/11/19 09:28:03;;;;;;;4.35;1.80;;;;;;;;;;5011086;28;20451;-70
2021/11/19 09:30:36;;;;;;;0.80;0.45;;;;;;;;;;5010463;28;20034;-70
2021/11/19 09:33:03;;;;;;;0.20;0.20;;;;;;;;;;5011016;28;20038;-70
2021/11/19 09:35:30;;;;;;;0.57;0.57;;;;;;;;;;5010922;28;20041;-69
2021/11/19 09:37:56;;;;;;;8.45;1.73;;;;;;;;;;5010980;28;20040;-70
2021/11/19 09:40:27;;;;;;;0.45;0.45;;;;;;;;;;5009953;28;20111;-70
2021/11/19 09:43:02;;;;;;;1.42;0.52;;;;;;;;;;5010594;28;20025;-70
2021/11/19 09:45:36;;;;;;;1.52;1.08;;;;;;;;;;5010053;28;20044;-70
2021/11/19 09:48:04;;;;;;;0.95;0.70;;;;;;;;;;5010808;28;20416;-70
2021/11/19 09:50:55;;;;;;;1.85;1.75;;;;;;;;;;5010599;28;20080;-70
2021/11/19 09:53:30;;;;;;;0.10;0.10;;;;;;;;;;5010680;28;20045;-69
2021/11/19 09:56:15;;;;;;;0.20;0.20;;;;;;;;;;5010219;28;20068;-70
2021/11/19 09:58:45;;;;;;;4.45;1.13;;;;;;;;;;5010288;28;20560;-71
2021/11/19 10:01:11;;;;;;;0.38;0.38;;;;;;;;;;5010670;28;20131;-70
2021/11/19 10:03:45;;;;;;;0.38;0.30;;;;;;;;;;5009928;28;20062;-70
2021/11/19 10:06:15;;;;;;;1.70;1.35;;;;;;;;;;5010611;28;20037;-70
2021/11/19 10:08:47;;;;;;;3.17;1.17;;;;;;;;;;5010242;28;20030;-70
2021/11/19 10:11:17;;;;;;;0.38;0.38;;;;;;;;;;5010460;28;20025;-69
2021/11/19 10:13:57;;;;;;;4.50;2.20;;;;;;;;;;5009727;28;20037;-70
2021/11/19 10:16:29;;;;;;;0.47;0.47;;;;;;;;;;5009994;28;20069;-69
2021/11/19 10:19:09;;;;;;;1.08;0.98;;;;;;;;;;5010120;28;20092;-70
2021/11/19 10:21:39;;;;;;;0.35;0.35;;;;;;;;;;5009960;28;20041;-70
2021/11/19 10:24:24;;;;;;;2.10;1.00;;;;;;;;;;5010024;28;20026;-69
2021/11/19 10:26:51;;;;;;;5.25;1.75;;;;;;;;;;5008326;28;20072;-70
2021/11/19 10:29:25;;;;;;;0.40;0.40;;;;;;;;;;5009606;28;20021;-69
2021/11/19 10:31:52;;;;;;;0.40;0.40;;;;;;;;;;5010051;28;20493;-70
2021/11/19 10:34:32;;;;;;;0.68;0.68;;;;;;;;;;5009496;28;20032;-70
2021/11/19 10:36:58;;;;;;;0.68;0.68;;;;;;;;;;5010011;28;20061;-70
2021/11/19 10:39:42;;;;;;;1.52;1.42;;;;;;;;;;5009532;28;20068;-70
2021/11/19 10:42:27;;;;;;;0.70;0.70;;;;;;;;;;5009876;28;20644;-70
2021/11/19 10:45:11;;;;;;;0.47;0.47;;;;;;;;;;5009512;28;20477;-70
2021/11/19 10:47:56;;;;;;;0.90;0.90;;;;;;;;;;5009483;28;20099;-69
2021/11/19 10:50:43;;;;;;;0.90;0.90;;;;;;;;;;5009043;28;20100;-70
2021/11/19 10:53:37;;;;;;;0.25;0.25;;;;;;;;;;4996454;28;20026;-70
2021/11/19 10:56:21;;;;;;;2.13;0.85;;;;;;;;;;5009597;28;20030;-70
2021/11/19 10:58:50;;;;;;;2.22;0.98;;;;;;;;;;5009296;28;20113;-70
2021/11/19 11:01:22;;;;;;;1.75;1.17;;;;;;;;;;5009072;28;20513;-70
2021/11/19 11:03:55;;;;;;;0.60;0.60;;;;;;;;;;5009493;28;20060;-70
2021/11/19 11:06:30;;;;;;;3.47;1.25;;;;;;;;;;5009262;28;20026;-70
2021/11/19 11:09:14;;;;;;;0.43;0.43;;;;;;;;;;5009450;28;20025;-70
2021/11/19 11:11:40;;;;;;;1.50;1.13;;;;;;;;;;5008458;28;20476;-69
2021/11/19 11:14:07;;;;;;;0.45;0.45;;;;;;;;;;5009259;28;20022;-71
2021/11/19 11:16:38;;;;;;;1.30;0.57;;;;;;;;;;5009002;28;20529;-71
2021/11/19 11:19:19;;;;;;;0.65;0.43;;;;;;;;;;5009230;28;20060;-70
2021/11/19 11:21:59;;;;;;;1.88;1.35;;;;;;;;;;5015355;28;20033;-70
2021/11/19 11:24:27;;;;;;;0.25;0.25;;;;;;;;;;5009225;28;20034;-70
2021/11/19 11:27:01;;;;;;;8.35;1.95;;;;;;;;;;5009503;28;20026;-75
2021/11/19 11:29:39;;;;;;;0.22;0.22;;;;;;;;;;5010024;28;20037;-70
2021/11/19 11:32:14;;;;;;;3.63;1.00;;;;;;;;;;5040976;28;20034;-71
2021/11/19 11:34:42;;;;;;;9.10;1.58;;;;;;;;;;5013407;28;20042;-70
2021/11/19 11:37:10;;;;;;;1.83;0.45;;;;;;;;;;4997981;28;20110;-70
2021/11/19 11:39:41;;;;;;;1.58;1.48;;;;;;;;;;5008731;28;20037;-70
2021/11/19 11:42:28;;;;;;;1.08;1.02;;;;;;;;;;5000066;28;20053;-70
2021/11/19 11:44:56;;;;;;;0.15;0.10;;;;;;;;;;5009641;28;20088;-70
2021/11/19 11:47:30;;;;;;;0.40;0.40;;;;;;;;;;5008806;28;20121;-70
2021/11/19 11:49:59;;;;;;;0.38;0.38;;;;;;;;;;5005340;28;20477;-70
2021/11/19 11:52:53;;;;;;;1.17;1.08;;;;;;;;;;5009363;28;20030;-70
2021/11/19 11:55:19;;;;;;;1.85;0.88;;;;;;;;;;5002394;28;20073;-70
2021/11/19 11:57:48;;;;;;;0.60;0.60;;;;;;;;;;5009302;28;20053;-68
2021/11/19 12:00:18;;;;;;;2.95;1.45;;;;;;;;;;5009456;28;20445;-69
2021/11/19 12:02:55;;;;;;;0.38;0.38;;;;;;;;;;5013434;28;20055;-70
2021/11/19 12:05:43;;;;;;;0.77;0.77;;;;;;;;;;5017887;28;20100;-70
2021/11/19 12:08:13;;;;;;;1.23;1.10;;;;;;;;;;5005184;28;20034;-70
2021/11/19 12:10:51;;;;;;;0.47;0.47;;;;;;;;;;5013342;28;20030;-69
2021/11/19 12:13:22;;;;;;;4.20;1.30;;;;;;;;;;5012958;28;20022;-69
2021/11/19 12:16:10;;;;;;;0.43;0.43;;;;;;;;;;5012884;28;20056;-70
2021/11/19 12:18:47;;;;;;;0.82;0.80;;;;;;;;;;5012052;28;20127;-70
2021/11/19 12:21:13;;;;;;;0.70;0.38;;;;;;;;;;5015567;28;20432;-69
2021/11/19 12:23:48;;;;;;;0.30;0.30;;;;;;;;;;5012234;28;20380;-70
2021/11/19 12:26:23;;;;;;;0.28;0.28;;;;;;;;;;5013638;28;20477;-69
2021/11/19 12:28:55;;;;;;;0.25;0.25;;;;;;;;;;5016381;28;20619;-70
2021/11/19 12:31:33;;;;;;;0.88;0.50;;;;;;;;;;5010219;28;20038;-69
2021/11/19 12:34:04;;;;;;;3.17;0.22;;;;;;;;;;5011230;28;20104;-69
2021/11/19 12:36:36;;;;;;;1.90;0.87;;;;;;;;;;5011331;28;20030;-70
2021/11/19 12:39:06;;;;;;;1.55;0.30;;;;;;;;;;5009063;28;20037;-70
2021/11/19 12:41:35;;;;;;;0.57;0.52;;;;;;;;;;5010693;28;20049;-70
2021/11/19 12:44:12;;;;;;;0.10;0.10;;;;;;;;;;5013482;28;20080;-70
2021/11/19 12:46:44;;;;;;;0.22;0.22;;;;;;;;;;5010894;28;20040;-70
2021/11/19 12:49:29;;;;;;;1.75;0.52;;;;;;;;;;5012128;28;20030;-69
2021/11/19 12:52:02;;;;;;;0.00;0.00;;;;;;;;;;5012300;28;20026;-69
2021/11/19 12:54:43;;;;;;;1.30;1.20;;;;;;;;;;5011647;28;20025;-70
2021/11/19 12:57:28;;;;;;;0.32;0.32;;;;;;;;;;5011694;28;20029;-70
2021/11/19 13:00:00;;;;;;;0.20;0.20;;;;;;;;;;5011866;28;20050;-69
2021/11/19 13:02:27;;;;;;;0.10;0.10;;;;;;;;;;5011727;28;20032;-71
2021/11/19 13:05:07;;;;;;;0.85;0.57;;;;;;;;;;5010684;28;20021;-69
2021/11/19 13:07:46;;;;;;;0.43;0.43;;;;;;;;;;5010813;28;20036;-71
2021/11/19 13:10:15;;;;;;;0.20;0.20;;;;;;;;;;5011256;28;20046;-69
2021/11/19 13:13:03;;;;;;;2.55;1.00;;;;;;;;;;5011243;28;20056;-70
2021/11/19 13:15:34;;;;;;;0.20;0.20;;;;;;;;;;5014927;28;20173;-69
2021/11/19 13:18:03;;;;;;;0.22;0.17;;;;;;;;;;5011304;28;20030;-69
2021/11/19 13:20:35;;;;;;;0.13;0.13;;;;;;;;;;5011437;28;20014;-69
2021/11/19 13:23:20;;;;;;;0.20;0.20;;;;;;;;;;5011630;28;20026;-69
2021/11/19 13:25:46;;;;;;;4.03;1.00;;;;;;;;;;5010468;28;20036;-70
2021/11/19 13:28:12;;;;;;;0.28;0.28;;;;;;;;;;5011338;28;20108;-70
2021/11/19 13:30:41;;;;;;;4.40;2.25;;;;;;;;;;5011134;28;20026;-70
2021/11/19 13:33:09;;;;;;;0.75;0.52;;;;;;;;;;5004644;28;20072;-70
2021/11/19 13:35:35;;;;;;;0.20;0.20;;;;;;;;;;5010719;28;20096;-70
2021/11/19 13:38:01;;;;;;;0.13;0.13;;;;;;;;;;5010731;28;20049;-70
2021/11/19 13:40:29;;;;;;;0.43;0.43;;;;;;;;;;5010749;28;20124;-69
2021/11/19 13:43:08;;;;;;;0.20;0.20;;;;;;;;;;5011102;28;20030;-70
2021/11/19 13:48:25;;;;;;;1.55;0.65;;;;;;;;;;5010219;28;20492;-70
2021/11/19 13:51:10;;;;;;;0.20;0.20;;;;;;;;;;5007787;28;20034;-70
2021/11/19 13:53:42;;;;;;;1.08;0.75;;;;;;;;;;5009976;28;20053;-70
2021/11/19 13:56:21;;;;;;;0.28;0.28;;;;;;;;;;5010042;28;20042;-70
2021/11/19 13:59:14;;;;;;;0.30;0.30;;;;;;;;;;5006960;28;20033;-70
2021/11/19 14:01:46;;;;;;;0.47;0.47;;;;;;;;;;5007257;28;20069;-70
2021/11/19 14:04:22;;;;;;;2.13;0.50;;;;;;;;;;5010034;28;20026;-69
2021/11/19 14:06:54;;;;;;;1.00;0.55;;;;;;;;;;5002136;28;20035;-69
2021/11/19 14:09:20;;;;;;;0.10;0.10;;;;;;;;;;5008023;28;20489;-70
2021/11/19 14:11:58;;;;;;;0.88;0.30;;;;;;;;;;5007150;28;20171;-69
2021/11/19 14:14:31;;;;;;;0.35;0.35;;;;;;;;;;5009933;28;20034;-71
2021/11/19 14:16:58;;;;;;;0.15;0.15;;;;;;;;;;5007104;28;20435;-69
2021/11/19 14:19:34;;;;;;;0.43;0.43;;;;;;;;;;5010859;28;20025;-69
2021/11/19 14:22:04;;;;;;;0.00;0.00;;;;;;;;;;5012426;28;20029;-71
2021/11/19 14:24:37;;;;;;;0.60;0.60;;;;;;;;;;5006568;28;20021;-71
2021/11/19 14:27:13;;;;;;;3.97;1.98;;;;;;;;;;5005894;28;20080;-71
2021/11/19 14:29:44;;;;;;;0.35;0.35;;;;;;;;;;5010290;28;20149;-70
2021/11/19 14:32:11;;;;;;;0.17;0.17;;;;;;;;;;5004272;28;20068;-71
2021/11/19 14:34:43;;;;;;;0.45;0.45;;;;;;;;;;5007382;28;20060;-71
2021/11/19 14:37:18;;;;;;;1.00;1.00;;;;;;;;;;5005812;28;20044;-75
2021/11/19 14:39:44;;;;;;;0.32;0.32;;;;;;;;;;5013788;28;20042;-71
2021/11/19 14:42:13;;;;;;;0.20;0.20;;;;;;;;;;5012975;28;20030;-73
2021/11/19 14:44:51;;;;;;;0.30;0.30;;;;;;;;;;5008874;28;20117;-70
2021/11/19 14:47:25;;;;;;;0.25;0.25;;;;;;;;;;5009935;28;22401;-71
2021/11/19 14:50:01;;;;;;;0.30;0.30;;;;;;;;;;5009143;28;20049;-71
2021/11/19 14:52:37;;;;;;;0.55;0.38;;;;;;;;;;5010042;28;20028;-70
2021/11/19 14:55:20;;;;;;;0.20;0.20;;;;;;;;;;5009853;28;20033;-70
2021/11/19 14:57:52;;;;;;;1.42;1.00;;;;;;;;;;5007662;28;20033;-70
2021/11/19 15:00:34;;;;;;;0.05;0.05;;;;;;;;;;5008006;28;20094;-71
2021/11/19 15:03:02;;;;;;;3.13;0.52;;;;;;;;;;5002628;28;20392;-71